Time;durP1;ratioP1;P1;durP2;ratioP2;P2;SDS_P1;SDS_P2;PMS_P1;PMS_P2;Temp;Humidity;BMP_temperature;BMP_pressure;BME280_temperature;BME280_humidity;BME280_pressure;Samples;Min_cycle;Max_cycle;Signal;HPM_P1;HPM_P2
2022/10/13 00:00:47;;;;;;;;;;;;;;;14.70;58.76;101713.47;5051820;28;19969;-91
2022/10/13 00:03:12;;;;;;;;;;;;;;;14.69;58.06;101711.75;5076130;28;19931;-92
2022/10/13 00:05:42;;;;;;;;;;;;;;;14.64;58.17;101710.56;5076196;28;19978;-91
2022/10/13 00:08:11;;;;;;;;;;;;;;;14.62;57.69;101713.41;5068810;28;19991;-88
2022/10/13 00:10:36;;;;;;;;;;;;;;;14.58;58.11;101712.03;5095065;28;20483;-86
2022/10/13 00:13:03;;;;;;;;;;;;;;;14.59;58.39;101710.19;5076466;28;19924;-87
2022/10/13 00:15:36;;;;;;;;;;;;;;;14.59;58.73;101704.78;5087806;28;20006;-91
2022/10/13 00:18:08;;;;;;;;;;;;;;;14.48;58.98;101706.72;5082262;28;19904;-92
2022/10/13 00:20:40;;;;;;;;;;;;;;;14.52;58.00;101707.25;5078912;28;19901;-91
2022/10/13 00:23:07;;;;;;;;;;;;;;;14.46;58.03;101706.03;5050279;28;19921;-87
2022/10/13 00:25:32;;;;;;;;;;;;;;;14.46;58.43;101703.31;5037528;28;19971;-90
2022/10/13 00:27:59;;;;;;;;;;;;;;;14.38;58.37;101707.84;5058397;28;19917;-89
2022/10/13 00:30:26;;;;;;;;;;;;;;;14.37;58.61;101709.69;5061013;28;19993;-91
2022/10/13 00:32:51;;;;;;;;;;;;;;;14.41;59.21;101708.38;5077997;28;19923;-91
2022/10/13 00:35:18;;;;;;;;;;;;;;;14.41;59.45;101705.66;5057071;28;19924;-92
2022/10/13 00:37:43;;;;;;;;;;;;;;;14.41;59.11;101711.06;5048978;28;19920;-91
2022/10/13 00:40:12;;;;;;;;;;;;;;;14.34;59.10;101710.84;5054348;28;20418;-91
2022/10/13 00:42:41;;;;;;;;;;;;;;;14.32;59.33;101704.75;5074218;28;19920;-90
2022/10/13 00:45:28;;;;;;;;;;;;;;;14.32;59.70;101707.47;5073059;28;19920;-90
2022/10/13 00:47:54;;;;;;;;;;;;;;;14.38;59.55;101703.28;5055375;28;19928;-89
2022/10/13 00:50:21;;;;;;;;;;;;;;;14.33;59.85;101700.22;5038733;28;19921;-89
2022/10/13 00:52:47;;;;;;;;;;;;;;;14.29;59.08;101701.53;5053079;28;19917;-88
2022/10/13 00:55:16;;;;;;;;;;;;;;;14.32;59.49;101699.34;5056423;28;19924;-90
2022/10/13 00:57:42;;;;;;;;;;;;;;;14.31;59.39;101696.81;5074997;28;19925;-90
2022/10/13 01:00:08;;;;;;;;;;;;;;;14.30;59.38;101692.41;5068878;28;19916;-91
2022/10/13 01:02:35;;;;;;;;;;;;;;;14.27;58.86;101693.56;5056172;28;19990;-91
2022/10/13 01:05:03;;;;;;;;;;;;;;;14.30;58.58;101697.81;5072977;28;19920;-88
2022/10/13 01:07:30;;;;;;;;;;;;;;;14.26;58.67;101701.88;5069883;28;19985;-88
2022/10/13 01:10:00;;;;;;;;;;;;;;;14.19;58.54;101703.47;5071544;28;19982;-90
2022/10/13 01:12:38;;;;;;;;;;;;;;;14.15;58.75;101706.50;5067851;28;19987;-91
2022/10/13 01:15:22;;;;;;;;;;;;;;;14.18;58.54;101702.63;5056668;28;19921;-90
2022/10/13 01:18:06;;;;;;;;;;;;;;;14.12;58.89;101693.31;5078460;28;19936;-89
2022/10/13 01:20:54;;;;;;;;;;;;;;;14.12;58.69;101700.59;5073531;28;19959;-90
2022/10/13 01:23:39;;;;;;;;;;;;;;;14.10;58.68;101692.63;4975587;28;19929;-86
2022/10/13 01:26:05;;;;;;;;;;;;;;;14.08;58.84;101700.06;5055272;28;19931;-92
2022/10/13 01:28:48;;;;;;;;;;;;;;;14.12;58.68;101696.03;5074404;28;19916;-91
2022/10/13 01:31:17;;;;;;;;;;;;;;;14.08;58.79;101691.09;5044817;28;19921;-90
2022/10/13 01:33:43;;;;;;;;;;;;;;;14.01;59.00;101693.56;5058378;28;19925;-90
2022/10/13 01:36:15;;;;;;;;;;;;;;;14.02;59.18;101686.31;5056785;28;19929;-88
2022/10/13 01:38:55;;;;;;;;;;;;;;;13.97;59.29;101686.78;5064914;28;19960;-89
2022/10/13 01:41:22;;;;;;;;;;;;;;;13.99;59.18;101695.59;5060574;28;19916;-90
2022/10/13 01:43:59;;;;;;;;;;;;;;;14.05;59.06;101697.66;5053676;28;19921;-92
2022/10/13 01:46:32;;;;;;;;;;;;;;;14.00;59.42;101697.31;5034563;28;20015;-93
2022/10/13 01:48:57;;;;;;;;;;;;;;;13.97;59.38;101692.19;5035915;28;19923;-91
2022/10/13 01:51:24;;;;;;;;;;;;;;;14.02;59.23;101692.56;5034376;28;19925;-90
2022/10/13 01:53:50;;;;;;;;;;;;;;;14.01;59.33;101687.34;5032724;28;19931;-87
2022/10/13 01:56:17;;;;;;;;;;;;;;;14.04;58.89;101687.84;5050487;28;20296;-91
2022/10/13 01:58:42;;;;;;;;;;;;;;;13.98;59.13;101684.91;5051665;28;20008;-93
2022/10/13 02:01:20;;;;;;;;;;;;;;;13.85;59.56;101685.34;5033764;28;19963;-88
2022/10/13 02:03:54;;;;;;;;;;;;;;;13.88;59.48;101694.00;5054500;28;19967;-88
2022/10/13 02:06:24;;;;;;;;;;;;;;;13.82;59.67;101689.22;5055470;28;19932;-88
2022/10/13 02:09:02;;;;;;;;;;;;;;;13.82;59.67;101697.31;5048237;28;19920;-88
2022/10/13 02:11:34;;;;;;;;;;;;;;;13.84;59.60;101694.47;5048074;28;19978;-87
2022/10/13 02:14:05;;;;;;;;;;;;;;;13.84;59.69;101705.28;5038836;28;19928;-89
2022/10/13 02:16:35;;;;;;;;;;;;;;;13.80;59.91;101706.59;5051180;28;20351;-90
2022/10/13 02:19:02;;;;;;;;;;;;;;;13.72;60.14;101702.84;5053937;28;19913;-88
2022/10/13 02:21:34;;;;;;;;;;;;;;;13.72;60.17;101699.28;5035422;28;19956;-90
2022/10/13 02:24:04;;;;;;;;;;;;;;;13.70;60.39;101704.84;5022176;28;19921;-88
2022/10/13 02:26:38;;;;;;;;;;;;;;;13.70;60.11;101707.53;5051794;28;20016;-88
2022/10/13 02:29:10;;;;;;;;;;;;;;;13.71;60.18;101703.81;5025879;28;20006;-86
2022/10/13 02:31:35;;;;;;;;;;;;;;;13.69;60.26;101713.94;5049691;28;19920;-87
2022/10/13 02:34:01;;;;;;;;;;;;;;;13.70;60.29;101723.75;5086829;28;19939;-90
2022/10/13 02:36:27;;;;;;;;;;;;;;;13.63;61.03;101717.28;5071549;28;20023;-89
2022/10/13 02:38:53;;;;;;;;;;;;;;;13.69;60.82;101716.63;5088555;28;19924;-88
2022/10/13 02:41:18;;;;;;;;;;;;;;;13.66;61.52;101711.53;5074568;28;19925;-89
2022/10/13 02:43:44;;;;;;;;;;;;;;;13.71;61.92;101714.63;5033430;28;20088;-93
2022/10/13 02:46:10;;;;;;;;;;;;;;;13.69;62.25;101713.94;5066597;28;20388;-91
2022/10/13 02:48:35;;;;;;;;;;;;;;;13.70;62.46;101712.94;5066212;28;19932;-88
2022/10/13 02:51:01;;;;;;;;;;;;;;;13.66;63.11;101716.94;5052868;28;20058;-93
2022/10/13 02:53:26;;;;;;;;;;;;;;;13.60;63.45;101717.59;5058413;28;19923;-92
2022/10/13 02:55:51;;;;;;;;;;;;;;;13.52;63.73;101721.03;5038786;28;19927;-91
2022/10/13 02:58:18;;;;;;;;;;;;;;;13.51;63.77;101716.66;5034970;28;20384;-90
2022/10/13 03:00:44;;;;;;;;;;;;;;;13.53;63.97;101716.47;5044811;28;19924;-89
2022/10/13 03:03:12;;;;;;;;;;;;;;;13.48;64.05;101726.91;5042449;28;19928;-90
2022/10/13 03:05:44;;;;;;;;;;;;;;;13.45;64.37;101725.38;5049514;28;19974;-90
2022/10/13 03:08:09;;;;;;;;;;;;;;;13.52;64.11;101731.00;5051306;28;20043;-91
2022/10/13 03:10:37;;;;;;;;;;;;;;;13.44;64.73;101728.25;5064654;28;19983;-92
2022/10/13 03:13:06;;;;;;;;;;;;;;;13.40;64.76;101724.16;5043132;28;19987;-91
2022/10/13 03:15:32;;;;;;;;;;;;;;;13.36;64.85;101726.28;5053797;28;19951;-90
2022/10/13 03:18:03;;;;;;;;;;;;;;;13.33;64.68;101731.16;5057532;28;19932;-87
2022/10/13 03:20:30;;;;;;;;;;;;;;;13.26;64.87;101729.03;5072944;28;19920;-92
2022/10/13 03:22:59;;;;;;;;;;;;;;;13.29;64.54;101730.59;5034334;28;19931;-92
2022/10/13 03:25:25;;;;;;;;;;;;;;;13.41;64.02;101725.84;5068594;28;19931;-91
2022/10/13 03:27:52;;;;;;;;;;;;;;;13.45;64.19;101716.41;5051502;28;20021;-89
2022/10/13 03:30:18;;;;;;;;;;;;;;;13.50;64.13;101717.66;5047595;28;19921;-90
2022/10/13 03:32:45;;;;;;;;;;;;;;;13.46;64.15;101721.69;5020202;28;19936;-91
2022/10/13 03:35:12;;;;;;;;;;;;;;;13.43;64.40;101719.28;5040625;28;19941;-92
2022/10/13 03:37:37;;;;;;;;;;;;;;;13.45;64.15;101709.16;5024970;28;19920;-92
2022/10/13 03:40:05;;;;;;;;;;;;;;;13.41;64.04;101715.03;5035615;28;20035;-89
2022/10/13 03:42:43;;;;;;;;;;;;;;;13.44;63.82;101706.63;5047293;28;19960;-92
2022/10/13 03:45:12;;;;;;;;;;;;;;;13.57;63.37;101700.81;5038930;28;19925;-94
2022/10/13 03:47:48;;;;;;;;;;;;;;;13.56;63.39;101693.75;5038603;28;19935;-89
2022/10/13 03:50:15;;;;;;;;;;;;;;;13.48;63.80;101699.91;5021735;28;20543;-94
2022/10/13 03:52:42;;;;;;;;;;;;;;;13.54;63.54;101693.88;5036502;28;19943;-86
2022/10/13 03:55:07;;;;;;;;;;;;;;;13.52;63.57;101696.72;5041659;28;20024;-92
2022/10/13 03:57:36;;;;;;;;;;;;;;;13.55;63.65;101682.06;5044413;28;19929;-89
2022/10/13 04:00:09;;;;;;;;;;;;;;;13.48;63.56;101681.81;5038040;28;20015;-91
2022/10/13 04:02:34;;;;;;;;;;;;;;;13.60;63.29;101684.28;5053603;28;19955;-92
2022/10/13 04:05:02;;;;;;;;;;;;;;;13.57;63.48;101685.47;5041811;28;20012;-96
2022/10/13 04:07:27;;;;;;;;;;;;;;;13.63;63.50;101681.31;5046401;28;20393;-90
2022/10/13 04:09:53;;;;;;;;;;;;;;;13.60;63.69;101679.75;5032554;28;20046;-88
2022/10/13 04:12:18;;;;;;;;;;;;;;;13.63;63.40;101682.16;5023226;28;19916;-89
2022/10/13 04:14:43;;;;;;;;;;;;;;;13.65;63.81;101672.03;5047424;28;20019;-88
2022/10/13 04:17:09;;;;;;;;;;;;;;;13.66;63.56;101679.13;5051959;28;19943;-90
2022/10/13 04:19:35;;;;;;;;;;;;;;;13.63;63.39;101679.44;5043875;28;19917;-89
2022/10/13 04:22:02;;;;;;;;;;;;;;;13.61;63.54;101676.03;5043381;28;20258;-90
2022/10/13 04:24:28;;;;;;;;;;;;;;;13.61;63.26;101669.81;5053524;28;20303;-90
2022/10/13 04:26:53;;;;;;;;;;;;;;;13.54;63.42;101668.72;5048513;28;19948;-90
2022/10/13 04:29:18;;;;;;;;;;;;;;;13.46;63.66;101666.78;5067473;28;19925;-90
2022/10/13 04:31:46;;;;;;;;;;;;;;;13.45;63.54;101673.19;5031957;28;19925;-89
2022/10/13 04:34:12;;;;;;;;;;;;;;;13.43;63.35;101683.31;5033829;28;19925;-90
2022/10/13 04:36:39;;;;;;;;;;;;;;;13.43;63.05;101680.59;5050995;28;19957;-90
2022/10/13 04:39:04;;;;;;;;;;;;;;;13.40;63.28;101676.38;5049386;28;19962;-90
2022/10/13 04:41:29;;;;;;;;;;;;;;;13.35;63.31;101681.38;5056749;28;19994;-92
2022/10/13 04:44:01;;;;;;;;;;;;;;;13.42;63.81;101687.88;5042528;28;20269;-93
2022/10/13 04:46:30;;;;;;;;;;;;;;;13.39;64.46;101687.31;5051159;28;19928;-93
2022/10/13 04:49:16;;;;;;;;;;;;;;;13.45;64.46;101692.94;5052290;28;19921;-92
2022/10/13 04:51:42;;;;;;;;;;;;;;;13.39;65.25;101687.31;5035164;28;19925;-92
2022/10/13 04:54:09;;;;;;;;;;;;;;;13.46;64.90;101693.78;5052694;28;19976;-91
2022/10/13 04:56:34;;;;;;;;;;;;;;;13.43;64.64;101694.13;5051010;28;19952;-91
2022/10/13 04:59:01;;;;;;;;;;;;;;;13.45;64.95;101697.50;5034412;28;20018;-92
2022/10/13 05:01:26;;;;;;;;;;;;;;;13.48;64.83;101698.03;5051780;28;19921;-93
2022/10/13 05:03:52;;;;;;;;;;;;;;;13.46;64.94;101697.38;5027936;28;19921;-90
2022/10/13 05:06:19;;;;;;;;;;;;;;;13.55;64.84;101697.44;5057224;28;19931;-92
2022/10/13 05:08:46;;;;;;;;;;;;;;;13.46;65.25;101697.38;5044708;28;20044;-90
2022/10/13 05:11:12;;;;;;;;;;;;;;;13.52;65.09;101696.72;5055619;28;20005;-91
2022/10/13 05:13:37;;;;;;;;;;;;;;;13.46;65.55;101705.47;5049835;28;19921;-87
2022/10/13 05:16:08;;;;;;;;;;;;;;;13.58;65.12;101714.19;5044867;28;19924;-90
2022/10/13 05:18:38;;;;;;;;;;;;;;;13.61;65.51;101711.16;5042176;28;19917;-86
2022/10/13 05:21:12;;;;;;;;;;;;;;;13.63;65.24;101722.69;5062006;28;19912;-91
2022/10/13 05:23:40;;;;;;;;;;;;;;;13.68;64.97;101716.81;5055982;28;19920;-90
2022/10/13 05:26:08;;;;;;;;;;;;;;;13.72;64.67;101715.50;5072351;28;20007;-93
2022/10/13 05:28:42;;;;;;;;;;;;;;;13.71;64.76;101727.28;5066473;28;19925;-93
2022/10/13 05:31:16;;;;;;;;;;;;;;;13.82;64.37;101715.41;5062784;28;19929;-91
2022/10/13 05:33:42;;;;;;;;;;;;;;;13.88;63.90;101717.47;5064462;28;19932;-92
2022/10/13 05:36:10;;;;;;;;;;;;;;;14.07;63.58;101713.72;5040159;28;20381;-93
2022/10/13 05:38:36;;;;;;;;;;;;;;;14.27;63.55;101717.06;5054151;28;19919;-94
2022/10/13 05:41:06;;;;;;;;;;;;;;;15.61;60.20;101719.94;5046870;28;19925;-92
2022/10/13 05:43:37;;;;;;;;;;;;;;;17.99;54.06;101719.06;5053487;28;20286;-94
2022/10/13 05:46:12;;;;;;;;;;;;;;;19.75;48.83;101715.47;5058650;28;19950;-92
2022/10/13 05:48:41;;;;;;;;;;;;;;;21.31;43.73;101715.16;5047403;28;19932;-92
2022/10/13 05:51:10;;;;;;;;;;;;;;;22.69;40.64;101712.66;5052085;28;19927;-92
2022/10/13 05:53:36;;;;;;;;;;;;;;;23.64;38.27;101721.03;5052997;28;19917;-92
2022/10/13 05:56:05;;;;;;;;;;;;;;;24.36;36.47;101715.16;5059225;28;19981;-88
2022/10/13 06:01:08;;;;;;;;;;;;;;;24.97;35.13;101721.69;5182060;22;19924;-88
2022/10/13 06:03:36;;;;;;;;;;;;;;;25.23;34.32;101720.50;5053546;28;19925;-92
2022/10/13 06:06:02;;;;;;;;;;;;;;;25.30;34.22;101721.25;5110597;22;20038;-92
2022/10/13 06:08:28;;;;;;;;;;;;;;;25.31;33.98;101724.84;5073668;28;19920;-92
2022/10/13 06:10:55;;;;;;;;;;;;;;;25.25;34.22;101718.38;5066879;28;19920;-93
2022/10/13 06:13:23;;;;;;;;;;;;;;;25.34;33.77;101710.63;5115222;22;19925;-91
2022/10/13 06:15:52;;;;;;;;;;;;;;;25.34;33.53;101727.16;5062612;28;19931;-90
2022/10/13 06:18:19;;;;;;;;;;;;;;;25.32;33.32;101721.88;5064966;28;19923;-95
2022/10/13 06:20:50;;;;;;;;;;;;;;;25.42;33.26;101716.63;5057545;28;20015;-91
2022/10/13 06:23:16;;;;;;;;;;;;;;;25.43;32.97;101712.81;5057856;28;19940;-93
2022/10/13 06:25:49;;;;;;;;;;;;;;;25.44;33.40;101711.72;5056886;28;20284;-95
2022/10/13 06:28:14;;;;;;;;;;;;;;;25.53;33.04;101711.41;5059752;28;20461;-94
2022/10/13 06:30:41;;;;;;;;;;;;;;;25.67;33.27;101704.59;5055494;28;19925;-96
2022/10/13 06:33:15;;;;;;;;;;;;;;;25.85;32.71;101706.44;5061354;28;20352;-93
2022/10/13 06:35:46;;;;;;;;;;;;;;;25.45;32.97;101712.56;5057214;28;19943;-94
2022/10/13 06:38:12;;;;;;;;;;;;;;;25.33;32.97;101709.78;5037651;28;19921;-92
2022/10/13 06:40:41;;;;;;;;;;;;;;;24.90;33.54;101710.75;5058445;28;20433;-95
2022/10/13 06:43:28;;;;;;;;;;;;;;;24.81;34.28;101701.13;5057347;28;19917;-93
2022/10/13 06:45:57;;;;;;;;;;;;;;;25.21;33.88;101701.47;5058525;28;19921;-92
2022/10/13 06:48:22;;;;;;;;;;;;;;;25.62;33.85;101707.25;5059835;28;19944;-89
2022/10/13 06:50:48;;;;;;;;;;;;;;;25.68;33.11;101711.78;5054600;28;19921;-91
2022/10/13 06:53:16;;;;;;;;;;;;;;;25.65;33.02;101712.25;5059562;28;19920;-92
2022/10/13 06:55:42;;;;;;;;;;;;;;;25.57;33.32;101718.13;5053757;28;20345;-87
2022/10/13 06:58:09;;;;;;;;;;;;;;;25.84;33.11;101710.25;5052204;28;19983;-93
2022/10/13 07:00:42;;;;;;;;;;;;;;;26.38;32.41;101710.19;5039303;28;19928;-90
2022/10/13 07:03:09;;;;;;;;;;;;;;;26.83;31.36;101706.75;5049674;28;19921;-91
2022/10/13 07:05:35;;;;;;;;;;;;;;;27.38;30.63;101706.22;5035585;28;20313;-91
2022/10/13 07:08:01;;;;;;;;;;;;;;;27.60;29.51;101714.63;5048220;28;19925;-95
2022/10/13 07:10:28;;;;;;;;;;;;;;;27.91;29.28;101712.38;5052148;28;19921;-89
2022/10/13 07:12:53;;;;;;;;;;;;;;;28.23;28.93;101712.63;5051511;28;20411;-90
2022/10/13 07:15:20;;;;;;;;;;;;;;;28.78;28.11;101714.53;5052293;28;19920;-92
2022/10/13 07:17:46;;;;;;;;;;;;;;;29.11;25.36;101709.94;5051951;28;19944;-92
2022/10/13 07:20:14;;;;;;;;;;;;;;;29.30;25.11;101702.13;5052358;28;19921;-93
2022/10/13 07:22:39;;;;;;;;;;;;;;;29.62;25.57;101699.38;5052460;28;19967;-90
2022/10/13 07:25:07;;;;;;;;;;;;;;;28.78;26.81;101700.69;5031172;28;19921;-90
2022/10/13 07:27:33;;;;;;;;;;;;;;;29.81;25.30;101701.78;5048320;28;19920;-88
2022/10/13 07:29:58;;;;;;;;;;;;;;;30.38;24.82;101689.97;5048821;28;19963;-89
2022/10/13 07:32:25;;;;;;;;;;;;;;;31.79;23.42;101688.16;5045812;28;19947;-91
2022/10/13 07:34:51;;;;;;;;;;;;;;;32.51;22.18;101689.72;5046975;28;19920;-90
2022/10/13 07:37:17;;;;;;;;;;;;;;;32.77;22.12;101690.44;5053475;28;19935;-95
2022/10/13 07:39:43;;;;;;;;;;;;;;;32.65;21.77;101684.38;5050664;28;19925;-94
2022/10/13 07:42:08;;;;;;;;;;;;;;;33.42;21.03;101683.94;5050907;28;19921;-86
2022/10/13 07:44:34;;;;;;;;;;;;;;;33.85;19.51;101690.53;5050724;28;19921;-90
2022/10/13 07:46:59;;;;;;;;;;;;;;;33.76;19.29;101685.91;5035068;28;19925;-92
2022/10/13 07:49:24;;;;;;;;;;;;;;;34.20;18.47;101688.56;5048045;28;20351;-89
2022/10/13 07:51:50;;;;;;;;;;;;;;;35.15;17.82;101686.00;5044749;28;19921;-90
2022/10/13 07:54:17;;;;;;;;;;;;;;;35.46;16.93;101680.75;5047737;28;20318;-91
2022/10/13 07:56:43;;;;;;;;;;;;;;;35.47;16.54;101675.97;5048540;28;19924;-88
2022/10/13 07:59:09;;;;;;;;;;;;;;;36.02;17.01;101675.31;5053534;28;19974;-90
2022/10/13 08:01:34;;;;;;;;;;;;;;;35.99;16.20;101671.19;5047329;28;19921;-89
2022/10/13 08:03:59;;;;;;;;;;;;;;;36.70;15.53;101685.72;5047651;28;20102;-89
2022/10/13 08:06:25;;;;;;;;;;;;;;;36.06;15.67;101682.78;5037419;28;20392;-92
2022/10/13 08:08:50;;;;;;;;;;;;;;;35.88;15.78;101678.91;5048729;28;19931;-91
2022/10/13 08:11:15;;;;;;;;;;;;;;;35.30;16.66;101668.16;5050378;28;19940;-92
2022/10/13 08:13:44;;;;;;;;;;;;;;;35.49;16.68;101668.94;5053514;28;20381;-92
2022/10/13 08:16:10;;;;;;;;;;;;;;;35.54;16.50;101672.78;5049611;28;19920;-90
2022/10/13 08:18:35;;;;;;;;;;;;;;;35.29;16.03;101680.47;5033299;28;19944;-89
2022/10/13 08:21:01;;;;;;;;;;;;;;;34.55;16.73;101680.88;5048464;28;20007;-90
2022/10/13 08:23:27;;;;;;;;;;;;;;;35.03;16.46;101677.22;5043701;28;19920;-88
2022/10/13 08:26:07;;;;;;;;;;;;;;;34.94;17.07;101685.44;5057925;28;19925;-96
2022/10/13 08:28:33;;;;;;;;;;;;;;;36.01;16.09;101679.25;5063147;28;19952;-88
2022/10/13 08:30:58;;;;;;;;;;;;;;;36.59;15.51;101678.69;5045899;28;19940;-89
2022/10/13 08:33:26;;;;;;;;;;;;;;;36.86;14.88;101682.59;5053245;28;19921;-92
2022/10/13 08:35:51;;;;;;;;;;;;;;;37.16;14.30;101659.50;5050049;28;20011;-90
2022/10/13 08:38:17;;;;;;;;;;;;;;;38.28;13.64;101671.72;5047087;28;19980;-92
2022/10/13 08:40:47;;;;;;;;;;;;;;;37.85;13.97;101679.94;5047136;28;19935;-89
2022/10/13 08:43:27;;;;;;;;;;;;;;;36.03;15.98;101677.78;5058147;28;19924;-91
2022/10/13 08:45:56;;;;;;;;;;;;;;;37.93;14.54;101676.34;5041741;28;19921;-89
2022/10/13 08:48:35;;;;;;;;;;;;;;;38.23;14.33;101677.50;5036343;28;19921;-92
2022/10/13 08:51:01;;;;;;;;;;;;;;;39.25;13.66;101676.41;5046506;28;19925;-91
2022/10/13 08:53:27;;;;;;;;;;;;;;;37.45;14.03;101677.03;5051503;28;20453;-91
2022/10/13 08:55:59;;;;;;;;;;;;;;;37.37;14.66;101675.81;5053364;28;19971;-92
2022/10/13 08:58:32;;;;;;;;;;;;;;;38.31;13.95;101675.88;5045515;28;20419;-93
2022/10/13 09:01:11;;;;;;;;;;;;;;;37.83;13.80;101677.44;5050547;28;20034;-96
2022/10/13 09:04:00;;;;;;;;;;;;;;;37.36;14.28;101674.16;5054025;28;19917;-92
2022/10/13 09:06:48;;;;;;;;;;;;;;;37.71;13.38;101675.22;5052155;28;20391;-91
2022/10/13 09:09:15;;;;;;;;;;;;;;;37.71;13.66;101672.44;5037691;28;19913;-95
2022/10/13 09:11:42;;;;;;;;;;;;;;;38.40;13.63;101686.00;5038722;28;19921;-96
2022/10/13 09:14:31;;;;;;;;;;;;;;;38.50;13.44;101684.06;5059231;28;19928;-95
2022/10/13 09:17:16;;;;;;;;;;;;;;;37.85;13.50;101677.94;5070319;28;19920;-91
2022/10/13 09:20:04;;;;;;;;;;;;;;;34.90;16.26;101684.38;5058847;28;19955;-93
2022/10/13 09:23:02;;;;;;;;;;;;;;;34.46;16.31;101679.88;5069061;28;19924;-92
2022/10/13 09:25:27;;;;;;;;;;;;;;;35.69;15.63;101675.38;5054827;28;19928;-92
2022/10/13 09:27:59;;;;;;;;;;;;;;;36.52;14.95;101678.25;5056264;28;19952;-90
2022/10/13 09:30:53;;;;;;;;;;;;;;;36.28;15.76;101672.88;5073201;28;19955;-88
2022/10/13 09:33:25;;;;;;;;;;;;;;;34.89;17.37;101677.97;5062701;28;19979;-92
2022/10/13 09:36:05;;;;;;;;;;;;;;;32.81;19.06;101674.00;5061949;28;19955;-92
2022/10/13 09:38:41;;;;;;;;;;;;;;;32.62;18.65;101681.34;5085586;28;20024;-91
2022/10/13 09:41:09;;;;;;;;;;;;;;;32.52;18.65;101679.41;5073531;28;19929;-90
2022/10/13 09:43:35;;;;;;;;;;;;;;;30.98;20.69;101673.06;5074999;28;19924;-93
2022/10/13 09:46:03;;;;;;;;;;;;;;;30.99;20.33;101672.75;5060568;28;19927;-95
2022/10/13 09:49:21;;;;;;;;;;;;;;;30.75;20.74;101679.88;5054646;28;20946;-96
2022/10/13 09:52:15;;;;;;;;;;;;;;;31.08;20.80;101676.66;5067949;28;19966;-96
2022/10/13 09:54:50;;;;;;;;;;;;;;;30.45;21.72;101679.47;5076603;28;20471;-87
2022/10/13 09:57:36;;;;;;;;;;;;;;;29.49;23.53;101677.66;5056890;28;20019;-95
2022/10/13 10:08:59;;;;;;;;;;;;;;;27.95;25.97;101663.81;5786692;22;20028;-94
2022/10/13 10:11:32;;;;;;;;;;;;;;;27.46;26.86;101666.31;5077854;28;19924;-95
2022/10/13 10:14:01;;;;;;;;;;;;;;;27.83;26.75;101666.69;5076099;28;19936;-94
2022/10/13 10:16:50;;;;;;;;;;;;;;;28.23;26.38;101662.03;5081461;28;20140;-95
2022/10/13 10:19:33;;;;;;;;;;;;;;;28.03;26.42;101655.13;5078047;28;19968;-95
2022/10/13 10:22:25;;;;;;;;;;;;;;;28.47;25.88;101649.69;5043207;28;19921;-94
2022/10/13 10:25:13;;;;;;;;;;;;;;;28.20;26.49;101644.03;5079637;28;19909;-92
2022/10/13 10:27:42;;;;;;;;;;;;;;;28.12;26.44;101649.97;5015133;28;19996;-92
2022/10/13 10:30:14;;;;;;;;;;;;;;;28.09;26.48;101642.19;5011109;28;19949;-94
2022/10/13 10:33:10;;;;;;;;;;;;;;;28.04;26.71;101639.38;5054359;28;19925;-92
2022/10/13 10:35:56;;;;;;;;;;;;;;;26.93;28.17;101629.72;5082800;28;19939;-90
2022/10/13 10:38:38;;;;;;;;;;;;;;;26.60;28.60;101635.94;5074064;28;19924;-93
2022/10/13 10:41:24;;;;;;;;;;;;;;;26.21;29.43;101636.50;5072360;28;20377;-91
2022/10/13 10:44:08;;;;;;;;;;;;;;;26.85;28.75;101635.63;5057790;28;20282;-89
2022/10/13 10:46:57;;;;;;;;;;;;;;;28.13;26.94;101637.84;5067302;28;19920;-91
2022/10/13 10:49:28;;;;;;;;;;;;;;;26.65;28.55;101628.63;5064340;28;19939;-89
2022/10/13 10:51:54;;;;;;;;;;;;;;;26.88;28.43;101626.88;5047516;28;19920;-89
2022/10/13 10:54:32;;;;;;;;;;;;;;;26.99;28.26;101633.41;5069731;28;19940;-90
2022/10/13 10:56:59;;;;;;;;;;;;;;;26.90;28.99;101621.94;5060088;28;19935;-90
2022/10/13 10:59:25;;;;;;;;;;;;;;;27.32;28.07;101628.00;5061578;28;19920;-89
2022/10/13 11:01:50;;;;;;;;;;;;;;;26.75;29.28;101616.97;5066557;28;19927;-91
2022/10/13 11:04:21;;;;;;;;;;;;;;;26.85;29.37;101613.56;5068459;28;20315;-90
2022/10/13 11:06:48;;;;;;;;;;;;;;;27.07;28.41;101614.53;5064697;28;20351;-89
2022/10/13 11:09:13;;;;;;;;;;;;;;;26.79;28.84;101617.31;5071888;28;19928;-92
2022/10/13 11:11:39;;;;;;;;;;;;;;;26.18;29.33;101612.19;5085236;28;20006;-90
2022/10/13 11:14:05;;;;;;;;;;;;;;;25.62;30.35;101614.44;5056087;28;20055;-89
2022/10/13 11:16:34;;;;;;;;;;;;;;;25.47;30.47;101609.41;5088127;28;19978;-89
2022/10/13 11:19:20;;;;;;;;;;;;;;;25.14;31.49;101606.31;5051794;28;19975;-89
2022/10/13 11:21:55;;;;;;;;;;;;;;;25.17;31.34;101595.69;5068664;28;19952;-88
2022/10/13 11:24:32;;;;;;;;;;;;;;;25.43;30.98;101597.19;5087198;28;20007;-90
2022/10/13 11:27:10;;;;;;;;;;;;;;;24.67;31.89;101601.47;5089046;28;20341;-90
2022/10/13 11:29:50;;;;;;;;;;;;;;;24.97;31.69;101604.22;5072044;28;19958;-88
2022/10/13 11:32:25;;;;;;;;;;;;;;;25.10;31.68;101594.09;5066530;28;19992;-91
2022/10/13 11:35:05;;;;;;;;;;;;;;;24.88;32.42;101596.56;5088382;28;19928;-90
2022/10/13 11:37:49;;;;;;;;;;;;;;;24.92;32.09;101589.50;5088754;28;20007;-87
2022/10/13 11:40:16;;;;;;;;;;;;;;;24.73;32.59;101592.31;5083773;28;19920;-88
2022/10/13 11:42:41;;;;;;;;;;;;;;;24.35;32.81;101587.06;5083720;28;19931;-87
2022/10/13 11:45:12;;;;;;;;;;;;;;;25.14;31.97;101581.56;5088908;28;19942;-85
2022/10/13 11:47:59;;;;;;;;;;;;;;;24.48;32.55;101584.19;5084806;28;20017;-85
2022/10/13 11:50:33;;;;;;;;;;;;;;;24.61;32.57;101577.69;5075097;28;20368;-87
2022/10/13 11:53:05;;;;;;;;;;;;;;;23.85;33.97;101573.47;5086503;28;19920;-87
2022/10/13 11:55:45;;;;;;;;;;;;;;;24.01;33.63;101575.63;5070005;28;19924;-88
2022/10/13 11:58:15;;;;;;;;;;;;;;;23.75;34.14;101574.84;5085128;28;19928;-93
2022/10/13 12:00:49;;;;;;;;;;;;;;;23.26;35.03;101575.69;5051729;28;19972;-92
2022/10/13 12:03:41;;;;;;;;;;;;;;;23.62;34.72;101574.09;5090436;28;20014;-89
2022/10/13 12:06:32;;;;;;;;;;;;;;;23.81;34.22;101570.34;5085844;28;19920;-89
2022/10/13 12:08:59;;;;;;;;;;;;;;;23.23;35.57;101576.97;5088572;28;19942;-86
2022/10/13 12:11:25;;;;;;;;;;;;;;;23.33;35.40;101562.75;5066528;28;20282;-88
2022/10/13 12:13:50;;;;;;;;;;;;;;;22.99;36.09;101564.06;5066987;28;19916;-86
2022/10/13 12:16:16;;;;;;;;;;;;;;;23.18;36.19;101558.44;5061309;28;19971;-88
2022/10/13 12:18:42;;;;;;;;;;;;;;;22.79;36.62;101561.41;5049488;28;19923;-88
2022/10/13 12:21:19;;;;;;;;;;;;;;;22.99;36.26;101551.16;5081364;28;19980;-85
2022/10/13 12:23:45;;;;;;;;;;;;;;;23.19;36.12;101551.03;5074571;28;19932;-87
2022/10/13 12:26:21;;;;;;;;;;;;;;;23.29;35.81;101551.38;5060431;28;19959;-87
2022/10/13 12:28:49;;;;;;;;;;;;;;;22.41;36.90;101557.63;5089072;28;19995;-88
2022/10/13 12:31:19;;;;;;;;;;;;;;;22.38;37.10;101544.34;5076186;28;19920;-89
2022/10/13 12:33:50;;;;;;;;;;;;;;;22.70;36.66;101541.66;5071795;28;19969;-87
2022/10/13 12:36:16;;;;;;;;;;;;;;;22.64;36.41;101550.72;5052891;28;19924;-86
2022/10/13 12:38:44;;;;;;;;;;;;;;;22.61;36.54;101551.19;5059980;28;19927;-86
2022/10/13 12:41:10;;;;;;;;;;;;;;;22.09;38.45;101543.78;5092010;28;19920;-85
2022/10/13 12:43:36;;;;;;;;;;;;;;;22.31;37.91;101540.78;5080001;28;19916;-88
2022/10/13 12:46:02;;;;;;;;;;;;;;;22.19;37.82;101534.28;5093146;28;20018;-89
2022/10/13 12:48:30;;;;;;;;;;;;;;;21.99;38.89;101535.19;5073696;28;19989;-87
2022/10/13 12:51:17;;;;;;;;;;;;;;;21.49;39.20;101529.41;5075962;28;19920;-87
2022/10/13 12:53:45;;;;;;;;;;;;;;;20.89;41.01;101528.53;5079312;28;19955;-89
2022/10/13 12:56:31;;;;;;;;;;;;;;;21.18;40.75;101522.66;5078208;28;19920;-90
2022/10/13 12:58:57;;;;;;;;;;;;;;;20.98;40.57;101521.81;5071697;28;19947;-90
2022/10/13 13:01:33;;;;;;;;;;;;;;;21.08;40.34;101516.78;5073570;28;19920;-91
2022/10/13 13:04:14;;;;;;;;;;;;;;;20.65;41.16;101515.25;5078985;28;20027;-89